Time;durP1;ratioP1;P1;durP2;ratioP2;P2;SDS_P1;SDS_P2;PMS_P1;PMS_P2;Temp;Humidity;BMP_temperature;BMP_pressure;BME280_temperature;BME280_humidity;BME280_pressure;Samples;Min_cycle;Max_cycle;Signal;HPM_P1;HPM_P2
2022/07/08 00:03:05;;;;;;;8.57;1.60;;;;;;;14.02;81.07;100722.78;10542367;28;20036;-69
2022/07/08 00:08:07;;;;;;;6.80;1.83;;;;;;;13.91;83.21;100722.31;10541836;28;20071;-69
2022/07/08 00:13:09;;;;;;;12.88;1.77;;;;;;;14.03;81.27;100721.00;10523032;28;20570;-70
2022/07/08 00:18:10;;;;;;;7.18;1.88;;;;;;;13.84;83.01;100718.16;10541055;28;20047;-70
2022/07/08 00:23:12;;;;;;;8.13;1.83;;;;;;;14.00;80.73;100722.00;10542600;28;20110;-70
2022/07/08 00:28:14;;;;;;;8.40;2.53;;;;;;;13.81;82.97;100713.84;10541495;28;20051;-69
2022/07/08 00:33:16;;;;;;;13.52;2.65;;;;;;;13.79;83.47;100718.31;10506249;28;20080;-70
2022/07/08 00:38:17;;;;;;;9.95;1.95;;;;;;;13.89;83.01;100721.50;10541314;28;20069;-70
2022/07/08 00:43:38;;;;;;;9.20;2.30;;;;;;;13.99;81.12;100728.22;10540445;28;20417;-70
2022/07/08 00:48:40;;;;;;;6.93;2.05;;;;;;;13.92;81.92;100736.41;10522719;28;20047;-70
2022/07/08 00:53:47;;;;;;;11.18;1.92;;;;;;;13.85;82.56;100736.59;10540083;28;20040;-70
2022/07/08 00:58:49;;;;;;;7.90;1.70;;;;;;;13.81;82.21;100732.34;10540246;28;20477;-70
2022/07/08 01:03:51;;;;;;;9.35;2.08;;;;;;;13.75;81.21;100734.31;10538548;28;20114;-70
2022/07/08 01:08:53;;;;;;;9.40;2.38;;;;;;;13.62;83.88;100740.00;10539359;28;20044;-70
2022/07/08 01:13:55;;;;;;;7.53;2.10;;;;;;;13.75;82.24;100740.47;10539081;28;20055;-70
2022/07/08 01:18:57;;;;;;;10.32;2.00;;;;;;;13.75;82.34;100744.88;10539243;28;20048;-70
2022/07/08 01:23:59;;;;;;;13.75;2.30;;;;;;;13.60;83.64;100740.97;10538958;28;20035;-71
2022/07/08 01:29:00;;;;;;;12.55;2.08;;;;;;;13.59;83.44;100750.69;10538958;28;20048;-70
2022/07/08 01:34:02;;;;;;;10.20;2.80;;;;;;;13.81;81.28;100752.59;10539846;28;20058;-71
2022/07/08 01:39:04;;;;;;;9.88;2.30;;;;;;;13.72;82.28;100756.41;10539248;28;20064;-70
2022/07/08 01:44:05;;;;;;;8.48;1.95;;;;;;;13.68;82.50;100760.09;10539889;28;20063;-71
2022/07/08 01:49:07;;;;;;;10.05;2.03;;;;;;;13.74;82.40;100759.03;10538446;28;20128;-71
2022/07/08 01:54:09;;;;;;;10.70;2.13;;;;;;;13.75;81.96;100755.44;10538454;28;20074;-71
2022/07/08 01:59:18;;;;;;;11.40;2.25;;;;;;;13.86;80.76;100756.84;10538538;28;20143;-71
2022/07/08 02:04:20;;;;;;;8.73;2.65;;;;;;;13.93;80.08;100759.25;10520931;28;20036;-71
2022/07/08 02:09:22;;;;;;;12.57;1.92;;;;;;;13.89;80.51;100764.63;10538225;28;20044;-69
2022/07/08 02:14:23;;;;;;;10.27;2.70;;;;;;;13.91;80.42;100764.59;10543450;28;20435;-70
2022/07/08 02:19:25;;;;;;;11.45;2.55;;;;;;;13.88;79.63;100757.63;10545764;28;20052;-70
2022/07/08 02:24:27;;;;;;;8.50;2.60;;;;;;;13.91;79.25;100756.69;10529260;28;20071;-70
2022/07/08 02:29:28;;;;;;;16.27;2.67;;;;;;;13.96;79.11;100770.59;10545190;28;20055;-70
2022/07/08 02:34:30;;;;;;;13.05;3.00;;;;;;;14.06;78.05;100766.72;10545379;28;20044;-70
2022/07/08 02:39:32;;;;;;;11.57;2.60;;;;;;;14.02;78.78;100769.50;10544824;28;20404;-70
2022/07/08 02:44:34;;;;;;;12.55;2.60;;;;;;;13.86;79.72;100770.03;10544683;28;20036;-70
2022/07/08 02:49:35;;;;;;;12.70;3.10;;;;;;;13.82;80.10;100775.50;10544176;28;20059;-71
2022/07/08 02:54:38;;;;;;;10.65;2.30;;;;;;;13.91;79.96;100788.38;10545097;28;20119;-70
2022/07/08 02:59:39;;;;;;;12.27;3.28;;;;;;;13.88;80.31;100783.19;10544056;28;20044;-70
2022/07/08 03:04:41;;;;;;;11.60;2.90;;;;;;;13.85;81.37;100788.56;10544448;28;20043;-70
2022/07/08 03:09:43;;;;;;;12.90;3.22;;;;;;;13.61;83.70;100790.25;10543645;28;20052;-69
2022/07/08 03:14:45;;;;;;;14.32;2.92;;;;;;;13.87;81.88;100795.56;10544375;28;20058;-71
2022/07/08 03:19:46;;;;;;;22.20;4.05;;;;;;;13.87;81.94;100798.19;10525745;28;20040;-70
2022/07/08 03:24:48;;;;;;;8.20;2.17;;;;;;;13.95;82.00;100800.59;10542148;28;20032;-71
2022/07/08 03:29:50;;;;;;;11.50;3.00;;;;;;;13.89;82.42;100801.63;10542863;28;20054;-71
2022/07/08 03:34:51;;;;;;;14.43;2.92;;;;;;;13.87;83.07;100807.91;10542926;28;20051;-70
2022/07/08 03:39:55;;;;;;;15.05;3.22;;;;;;;14.02;81.68;100812.66;10542323;28;20512;-71
2022/07/08 03:44:57;;;;;;;12.32;3.67;;;;;;;13.85;83.35;100809.72;10524025;28;20066;-71
2022/07/08 03:49:58;;;;;;;18.63;3.50;;;;;;;13.81;84.64;100821.31;10541840;28;20056;-69
2022/07/08 03:55:00;;;;;;;10.77;3.15;;;;;;;13.95;82.90;100818.22;10523837;28;20055;-69
2022/07/08 04:00:04;;;;;;;20.63;3.53;;;;;;;13.86;83.09;100838.75;10524556;28;20052;-69
2022/07/08 04:05:06;;;;;;;14.77;3.33;;;;;;;13.80;83.81;100838.06;10541515;28;20043;-69
2022/07/08 04:10:08;;;;;;;11.13;3.42;;;;;;;13.85;83.84;100846.72;10541700;28;20398;-69
2022/07/08 04:15:10;;;;;;;10.18;3.28;;;;;;;13.93;83.61;100842.06;10523997;28;20113;-69
2022/07/08 04:20:11;;;;;;;14.70;3.83;;;;;;;13.90;84.93;100844.81;10540783;28;20413;-70
2022/07/08 04:25:13;;;;;;;23.80;3.65;;;;;;;13.84;85.08;100848.50;10540383;28;20047;-70
2022/07/08 04:30:15;;;;;;;15.05;3.60;;;;;;;14.01;83.54;100863.81;10540350;28;20416;-69
2022/07/08 04:35:16;;;;;;;18.48;4.25;;;;;;;14.05;84.36;100856.66;10539941;28;20047;-70
2022/07/08 04:40:18;;;;;;;14.20;3.40;;;;;;;14.11;84.11;100862.59;10539837;28;20143;-71
2022/07/08 04:45:20;;;;;;;19.55;4.18;;;;;;;14.17;83.34;100866.84;10541489;28;20043;-70
2022/07/08 04:50:21;;;;;;;15.15;3.70;;;;;;;14.17;84.41;100880.06;10540192;28;20442;-70
2022/07/08 04:55:29;;;;;;;16.45;4.22;;;;;;;14.22;83.78;100874.59;10539907;28;20124;-70
2022/07/08 05:00:32;;;;;;;27.08;5.03;;;;;;;14.13;84.39;100881.06;10539586;28;20127;-70
2022/07/08 05:05:34;;;;;;;16.98;3.97;;;;;;;14.14;84.52;100888.94;10540478;28;20050;-69
2022/07/08 05:10:36;;;;;;;24.70;5.13;;;;;;;14.11;85.09;100901.38;10539240;28;20044;-69
2022/07/08 05:15:38;;;;;;;22.48;5.13;;;;;;;14.22;84.69;100906.34;10539240;28;20054;-69
2022/07/08 05:20:39;;;;;;;20.50;4.47;;;;;;;14.40;83.36;100916.31;10539607;28;20040;-69
2022/07/08 05:25:41;;;;;;;28.67;4.43;;;;;;;14.29;84.49;100916.63;10521241;28;20044;-69
2022/07/08 05:30:43;;;;;;;23.38;4.68;;;;;;;14.41;84.35;100930.38;10539211;28;20044;-71
2022/07/08 05:35:44;;;;;;;29.05;5.63;;;;;;;14.29;84.43;100929.88;10539052;28;20040;-71
2022/07/08 05:40:46;;;;;;;17.33;4.35;;;;;;;14.32;84.84;100943.00;10539649;28;20040;-70
2022/07/08 05:45:56;;;;;;;30.75;5.43;;;;;;;14.16;85.96;100944.41;10544107;22;20122;31
2022/07/08 05:50:58;;;;;;;28.40;5.90;;;;;;;14.35;84.98;100947.34;10406894;28;20041;-73
2022/07/08 05:55:59;;;;;;;31.33;6.13;;;;;;;14.34;84.90;100945.59;10460227;28;20445;-73
2022/07/08 06:01:02;;;;;;;28.05;4.95;;;;;;;14.31;85.63;100951.84;10465343;28;20051;-72
2022/07/08 06:06:04;;;;;;;21.20;4.63;;;;;;;14.25;85.99;100957.31;10446735;28;20044;-73
2022/07/08 06:11:06;;;;;;;33.90;4.90;;;;;;;14.42;85.33;100967.34;10464172;28;20049;-73
2022/07/08 06:16:08;;;;;;;24.48;5.32;;;;;;;14.27;86.96;100967.88;10463766;28;20045;-73
2022/07/08 06:21:09;;;;;;;28.75;5.10;;;;;;;14.51;85.80;100977.66;10463267;28;20049;-73
2022/07/08 06:26:11;;;;;;;19.40;5.30;;;;;;;14.55;85.36;100973.16;10428141;28;20049;-73
2022/07/08 06:31:13;;;;;;;35.88;5.63;;;;;;;14.55;85.58;100979.31;10444514;28;20052;-74
2022/07/08 06:36:15;;;;;;;16.92;4.28;;;;;;;14.71;85.46;100971.72;10462314;28;20453;-74
2022/07/08 06:41:17;;;;;;;16.98;4.82;;;;;;;14.94;83.43;100978.88;10462665;28;20119;-72
2022/07/08 06:46:19;;;;;;;23.88;4.10;;;;;;;14.91;83.67;100975.47;10405179;28;1127592;-72
2022/07/08 06:51:21;;;;;;;18.50;4.40;;;;;;;14.85;84.37;100979.19;10465505;28;20051;-72
2022/07/08 06:56:26;;;;;;;20.48;4.25;;;;;;;14.91;83.56;100984.25;10464037;28;20037;-73
2022/07/08 07:01:28;;;;;;;22.67;3.92;;;;;;;15.02;83.70;100981.25;10463957;28;20079;-73
2022/07/08 07:06:31;;;;;;;17.50;3.75;;;;;;;15.02;83.11;100983.91;10465741;28;20537;-71
2022/07/08 07:11:32;;;;;;;15.02;4.72;;;;;;;15.13;82.92;100987.03;10465435;28;20124;-73
2022/07/08 07:16:34;;;;;;;16.40;3.67;;;;;;;15.31;81.19;101007.56;10446286;28;20044;-72
2022/07/08 07:21:36;;;;;;;17.90;4.22;;;;;;;15.14;82.30;101015.25;10446359;28;20053;-72
2022/07/08 07:26:38;;;;;;;15.98;3.20;;;;;;;15.33;81.23;101020.78;10446050;28;20065;-74
2022/07/08 07:31:40;;;;;;;18.88;4.13;;;;;;;15.30;81.13;101027.03;10463325;28;20059;-72
2022/07/08 07:36:41;;;;;;;17.63;3.10;;;;;;;15.37;80.48;101030.34;10464779;28;20441;-72
2022/07/08 07:41:43;;;;;;;12.30;3.60;;;;;;;15.37;80.29;101039.16;10465259;28;20041;-72
2022/07/08 07:46:45;;;;;;;11.63;3.80;;;;;;;15.46;80.44;101045.91;10463830;28;20043;-72
2022/07/08 07:51:46;;;;;;;11.07;3.13;;;;;;;15.53;78.77;101057.13;10446313;28;20059;-71
2022/07/08 07:56:48;;;;;;;8.70;2.83;;;;;;;15.42;79.19;101051.38;10446556;28;20509;-72
2022/07/08 08:01:50;;;;;;;13.27;3.05;;;;;;;15.51;79.39;101057.19;10463450;28;20049;-72
2022/07/08 08:06:52;;;;;;;12.35;3.05;;;;;;;15.69;78.37;101057.50;10462680;28;20038;-72
2022/07/08 08:11:56;;;;;;;10.38;3.08;;;;;;;15.81;75.92;101055.25;10461369;28;20041;-72
2022/07/08 08:17:02;;;;;;;9.93;2.97;;;;;;;15.76;77.29;101069.56;10444154;28;20084;-72
2022/07/08 08:22:04;;;;;;;9.18;2.45;;;;;;;15.80;76.28;101081.81;10460843;28;20102;-72
2022/07/08 08:27:06;;;;;;;11.15;2.20;;;;;;;15.74;75.43;101074.94;10444442;28;20457;-72
2022/07/08 08:32:08;;;;;;;9.48;2.88;;;;;;;15.87;74.98;101076.22;10462288;28;20449;-72
2022/07/08 08:37:10;;;;;;;7.20;2.67;;;;;;;15.84;75.24;101075.47;10461862;28;20041;-72
2022/07/08 08:42:14;;;;;;;8.95;2.45;;;;;;;15.78;75.49;101076.56;10461278;28;20048;-72
2022/07/08 08:47:16;;;;;;;10.90;2.75;;;;;;;16.15;73.61;101081.34;10459191;28;20049;-72
2022/07/08 08:52:18;;;;;;;9.45;1.92;;;;;;;16.47;72.37;101091.63;10461481;28;20040;-71
2022/07/08 08:57:20;;;;;;;10.55;2.65;;;;;;;16.87;71.44;101078.53;10460120;28;20072;-71
2022/07/08 09:02:22;;;;;;;8.52;2.17;;;;;;;16.68;69.90;101089.91;10460905;28;20079;-73
2022/07/08 09:07:24;;;;;;;10.63;2.47;;;;;;;16.73;69.70;101088.84;10461424;28;20133;-73
2022/07/08 09:12:25;;;;;;;11.60;3.30;;;;;;;16.47;72.16;101095.19;10461838;28;20044;-73
2022/07/08 09:17:27;;;;;;;10.73;2.78;;;;;;;16.35;71.88;101091.19;10444979;28;20483;-72
2022/07/08 09:22:29;;;;;;;10.43;2.70;;;;;;;16.55;71.31;101095.72;10463775;28;20083;-71
2022/07/08 09:27:31;;;;;;;8.70;2.72;;;;;;;16.67;71.11;101093.50;10471036;28;20040;-71
2022/07/08 09:32:38;;;;;;;7.15;2.17;;;;;;;16.84;70.85;101086.63;10452063;28;20068;-72
2022/07/08 09:37:40;;;;;;;11.45;2.95;;;;;;;16.80;68.78;101089.47;10451887;28;20546;-72
2022/07/08 09:42:42;;;;;;;8.75;2.35;;;;;;;16.46;70.01;101090.78;10469526;28;20045;-72
2022/07/08 09:47:43;;;;;;;13.20;2.67;;;;;;;16.59;69.88;101083.19;10466457;28;20075;-72
2022/07/08 09:52:45;;;;;;;6.55;1.75;;;;;;;16.77;69.78;101085.13;10450737;28;20479;-72
2022/07/08 09:57:48;;;;;;;6.07;2.42;;;;;;;17.24;66.08;101086.75;10469278;28;20041;-72
2022/07/08 10:02:50;;;;;;;7.78;2.08;;;;;;;17.29;64.34;101095.38;10450288;28;20053;-71
2022/07/08 10:07:52;;;;;;;7.05;1.77;;;;;;;17.89;62.47;101086.53;10450920;28;20556;-72
2022/07/08 10:12:57;;;;;;;5.00;1.40;;;;;;;17.96;60.76;101087.13;10451127;28;20049;-72
2022/07/08 10:18:06;;;;;;;6.38;2.55;;;;;;;17.82;60.82;101095.72;10468727;28;20067;-73
2022/07/08 10:23:14;;;;;;;6.25;2.25;;;;;;;17.72;61.65;101106.81;10433650;28;20107;-73
2022/07/08 10:28:16;;;;;;;7.07;1.65;;;;;;;17.38;62.40;101114.44;10466887;28;20131;-72
2022/07/08 10:33:19;;;;;;;8.52;2.03;;;;;;;17.22;63.23;101109.84;10465623;28;20045;-71
2022/07/08 10:38:41;;;;;;;6.25;1.70;;;;;;;17.67;61.67;101093.72;10466253;28;20041;-71
2022/07/08 10:43:54;;;;;;;6.88;2.42;;;;;;;17.43;62.91;101106.28;10466289;28;20099;-72
2022/07/08 10:48:58;;;;;;;6.05;1.90;;;;;;;17.32;61.43;101111.22;10465864;28;20064;-72
2022/07/08 10:54:01;;;;;;;6.78;1.45;;;;;;;17.57;60.67;101111.00;10465912;28;20062;-72
2022/07/08 10:59:19;;;;;;;5.80;1.45;;;;;;;17.74;60.46;101105.84;10465168;28;20044;-72
2022/07/08 11:04:33;;;;;;;7.55;2.00;;;;;;;17.60;60.07;101111.72;10447615;28;20076;-71
2022/07/08 11:09:35;;;;;;;7.57;2.40;;;;;;;17.42;60.19;101122.31;10431449;28;20139;-71
2022/07/08 11:14:41;;;;;;;8.18;1.70;;;;;;;17.13;59.75;101124.38;10464594;28;20047;-71
2022/07/08 11:19:45;;;;;;;5.68;1.30;;;;;;;17.22;60.46;101136.41;10446360;28;20045;-71
2022/07/08 11:24:47;;;;;;;6.07;1.10;;;;;;;17.45;60.94;101128.38;10464597;28;20045;-72
2022/07/08 11:29:51;;;;;;;3.97;1.10;;;;;;;17.69;59.03;101130.88;10446864;28;20406;-70
2022/07/08 11:34:54;;;;;;;6.90;1.50;;;;;;;17.68;59.38;101138.00;10447314;28;20197;-71
2022/07/08 11:39:56;;;;;;;4.88;1.40;;;;;;;17.71;58.67;101143.19;10464179;28;20040;-72
2022/07/08 11:45:04;;;;;;;6.25;1.58;;;;;;;17.53;60.18;101152.81;10463701;28;20124;-70
2022/07/08 11:50:12;;;;;;;5.25;1.50;;;;;;;17.21;61.08;101153.28;10529897;22;20048;-67
2022/07/08 11:55:14;;;;;;;7.57;1.65;;;;;;;17.24;60.64;101156.69;10541975;28;20419;-68
2022/07/08 12:00:16;;;;;;;5.75;1.70;;;;;;;16.91;61.45;101153.66;10541819;28;20044;-66
2022/07/08 12:05:18;;;;;;;6.45;1.85;;;;;;;17.15;61.82;101143.78;10541854;28;20415;-66
2022/07/08 12:10:22;;;;;;;7.28;1.83;;;;;;;17.06;61.39;101144.19;10541950;28;20044;-66
2022/07/08 12:15:34;;;;;;;5.55;1.75;;;;;;;17.18;60.49;101138.38;10523514;28;20044;-66
2022/07/08 12:20:38;;;;;;;5.13;1.45;;;;;;;17.21;60.94;101135.56;10541520;28;20109;-66
2022/07/08 12:25:48;;;;;;;6.50;1.52;;;;;;;16.96;61.32;101138.38;10540816;28;20040;-66
2022/07/08 12:30:49;;;;;;;7.95;1.60;;;;;;;16.97;61.19;101118.00;10540569;28;20043;-67
2022/07/08 12:35:52;;;;;;;7.10;1.52;;;;;;;17.68;59.14;101114.06;10522490;28;20040;-67
2022/07/08 12:41:01;;;;;;;5.00;1.48;;;;;;;18.36;56.24;101096.75;10541462;28;20050;-67
2022/07/08 12:46:04;;;;;;;6.20;1.60;;;;;;;18.70;54.97;101083.69;10539614;28;20509;-67
2022/07/08 12:51:09;;;;;;;6.57;1.75;;;;;;;19.45;53.94;101085.22;10522178;28;20501;-67
2022/07/08 12:56:11;;;;;;;7.55;1.88;;;;;;;19.78;51.85;101086.13;10539267;28;20056;-67
2022/07/08 13:01:13;;;;;;;4.30;1.30;;;;;;;19.81;51.39;101085.13;10540555;28;20048;-67
2022/07/08 13:06:20;;;;;;;5.63;1.45;;;;;;;19.47;52.04;101088.66;10521191;28;20043;-67
2022/07/08 13:11:22;;;;;;;5.25;1.67;;;;;;;19.90;50.88;101084.63;10539518;28;20421;-67
2022/07/08 13:16:23;;;;;;;6.50;1.40;;;;;;;20.02;49.77;101073.28;10522302;28;20048;-67
2022/07/08 13:21:26;;;;;;;7.53;1.77;;;;;;;19.64;49.70;101078.88;10539716;28;20076;-67
2022/07/08 13:26:36;;;;;;;3.47;1.30;;;;;;;19.73;50.73;101068.66;10539516;28;20401;-68
2022/07/08 13:31:38;;;;;;;4.63;1.60;;;;;;;20.37;48.39;101076.69;10540172;28;20044;-67
2022/07/08 13:36:40;;;;;;;5.97;1.38;;;;;;;20.61;47.99;101065.59;10540282;28;20553;-69
2022/07/08 13:41:43;;;;;;;4.20;1.40;;;;;;;20.19;48.00;101063.47;10539681;28;20513;-68
2022/07/08 13:46:45;;;;;;;4.68;1.35;;;;;;;20.15;48.11;101053.00;10539065;28;20036;-67
2022/07/08 13:51:47;;;;;;;3.58;1.92;;;;;;;20.47;47.29;101063.66;10539879;28;20044;-67
2022/07/08 13:56:48;;;;;;;5.18;1.25;;;;;;;20.41;47.61;101054.19;10520564;28;20413;-66
2022/07/08 14:01:50;;;;;;;4.55;1.35;;;;;;;20.73;46.71;101038.16;10538638;28;20036;-66
2022/07/08 14:06:52;;;;;;;7.22;1.40;;;;;;;20.61;46.16;101045.06;10520214;28;20045;-67
2022/07/08 14:11:53;;;;;;;5.80;1.38;;;;;;;20.70;46.35;101035.66;10546099;28;20051;-66
2022/07/08 14:16:55;;;;;;;3.80;1.00;;;;;;;21.05;44.47;101020.22;10537775;28;20047;-68
2022/07/08 14:21:57;;;;;;;2.92;0.95;;;;;;;20.87;45.70;101015.97;10546494;28;20408;-67
2022/07/08 14:26:59;;;;;;;3.35;1.25;;;;;;;20.91;44.69;101015.69;10528754;28;20081;-69
2022/07/08 14:32:01;;;;;;;5.00;1.38;;;;;;;21.23;43.91;101004.03;10528278;28;20046;-68
2022/07/08 14:37:03;;;;;;;6.35;1.33;;;;;;;21.63;43.95;100999.78;10544962;28;20044;-67
2022/07/08 14:42:05;;;;;;;4.15;1.00;;;;;;;21.53;43.52;101002.19;10544855;28;20044;-67
2022/07/08 14:47:07;;;;;;;4.63;1.45;;;;;;;21.15;45.00;101000.00;10527984;28;20055;-66
2022/07/08 14:52:09;;;;;;;3.25;1.15;;;;;;;21.35;44.36;100993.47;10544554;28;20047;-68
2022/07/08 14:57:11;;;;;;;8.88;1.67;;;;;;;21.89;43.86;100990.97;10547787;28;20039;-68
2022/07/08 15:02:12;;;;;;;6.05;1.15;;;;;;;21.75;42.45;100992.81;10546466;28;20040;-67
2022/07/08 15:07:14;;;;;;;6.57;1.40;;;;;;;21.85;42.33;100981.41;10545370;28;20048;-67
2022/07/08 15:12:16;;;;;;;3.20;0.90;;;;;;;21.75;42.28;100984.78;10544077;28;20051;-68
2022/07/08 15:17:18;;;;;;;5.22;1.42;;;;;;;21.30;44.04;100981.31;10545652;28;20107;-67
2022/07/08 15:22:20;;;;;;;5.70;1.70;;;;;;;21.02;44.14;100982.13;10546268;28;20039;-67
2022/07/08 15:27:22;;;;;;;4.70;1.30;;;;;;;20.83;44.97;100982.38;10586537;28;20039;-67
2022/07/08 15:32:23;;;;;;;5.35;1.83;;;;;;;21.08;44.38;100973.75;10558906;28;20086;-68
2022/07/08 15:37:25;;;;;;;3.28;1.45;;;;;;;21.07;44.03;100977.34;10524878;28;20489;-67
2022/07/08 15:42:27;;;;;;;4.07;1.35;;;;;;;20.92;43.41;100980.00;10542709;28;20047;-67
2022/07/08 15:47:32;;;;;;;4.07;1.20;;;;;;;20.90;43.99;100976.56;10546077;28;20507;-67
2022/07/08 15:52:34;;;;;;;2.25;0.93;;;;;;;20.94;41.33;100979.94;10584772;28;20048;-67
2022/07/08 15:57:38;;;;;;;2.42;1.20;;;;;;;20.72;42.61;100996.38;10584577;28;20050;-68
2022/07/08 16:02:39;;;;;;;5.30;1.13;;;;;;;20.24;43.08;100992.03;10585782;28;20051;-68
2022/07/08 16:07:42;;;;;;;4.57;0.90;;;;;;;20.12;43.49;100994.41;10585529;28;20055;-68
2022/07/08 16:12:44;;;;;;;3.42;1.00;;;;;;;20.04;43.69;101007.34;10585196;28;20119;-68
2022/07/08 16:17:45;;;;;;;2.80;0.80;;;;;;;19.90;44.97;101004.56;10586030;28;20049;-68
2022/07/08 16:22:47;;;;;;;3.78;1.17;;;;;;;19.95;45.38;101002.50;10566029;28;20068;-68
2022/07/08 16:27:49;;;;;;;4.93;1.17;;;;;;;19.74;46.00;100998.34;10541854;28;20507;-68
2022/07/08 16:32:51;;;;;;;2.58;0.98;;;;;;;19.68;46.49;101004.88;10541332;28;20094;-68
2022/07/08 16:37:52;;;;;;;5.32;1.33;;;;;;;19.72;47.20;101000.25;10541394;28;20046;-68
2022/07/08 16:42:54;;;;;;;1.83;0.90;;;;;;;19.74;47.70;101003.69;10541354;28;20044;-67
2022/07/08 16:47:56;;;;;;;4.70;1.10;;;;;;;19.77;47.49;101004.38;10524324;28;20043;-68
2022/07/08 16:53:01;;;;;;;5.47;1.30;;;;;;;19.76;47.83;101008.00;10543458;28;20036;-68
2022/07/08 16:58:03;;;;;;;4.57;1.17;;;;;;;19.59;48.40;101008.88;10541447;28;20439;-67
2022/07/08 17:03:05;;;;;;;8.63;1.10;;;;;;;19.59;48.44;101006.22;10541661;28;20051;-67
2022/07/08 17:08:07;;;;;;;3.95;1.23;;;;;;;19.49;48.98;101004.13;10541560;28;20126;-68
2022/07/08 17:13:08;;;;;;;3.30;1.20;;;;;;;19.42;49.55;101001.78;10541331;28;20051;-68
2022/07/08 17:18:11;;;;;;;5.95;1.45;;;;;;;19.25;50.06;101003.59;10540526;28;20067;-68
2022/07/08 17:23:13;;;;;;;4.63;1.50;;;;;;;19.55;49.37;100999.31;10524206;28;20052;-68
2022/07/08 17:28:15;;;;;;;4.30;1.30;;;;;;;19.58;49.29;101000.97;10541754;28;20447;-68
2022/07/08 17:33:17;;;;;;;3.92;1.33;;;;;;;19.40;50.18;101005.47;10541376;28;20408;-69
2022/07/08 17:38:19;;;;;;;4.95;1.33;;;;;;;19.33;50.83;100999.59;10544272;28;20111;-67
2022/07/08 17:43:20;;;;;;;3.33;1.17;;;;;;;19.28;51.27;101009.66;10526261;28;20098;-67
2022/07/08 17:48:22;;;;;;;4.82;1.35;;;;;;;19.04;52.03;101008.28;10513437;22;20494;-73
2022/07/08 17:53:24;;;;;;;5.20;1.15;;;;;;;19.04;53.08;101009.13;10432873;28;20049;-73
2022/07/08 17:58:26;;;;;;;2.88;1.10;;;;;;;18.99;53.42;101003.19;10413055;28;20495;-73
2022/07/08 18:03:28;;;;;;;4.28;0.95;;;;;;;19.22;52.52;101006.47;10394925;28;20081;-73
2022/07/08 18:08:29;;;;;;;4.82;1.33;;;;;;;18.99;53.56;101008.50;10410310;28;20038;-74
2022/07/08 18:13:32;;;;;;;4.45;1.05;;;;;;;19.20;53.23;101006.50;10415720;28;20064;-73
2022/07/08 18:18:34;;;;;;;3.80;0.95;;;;;;;19.02;53.73;101005.66;10432773;28;20048;-73
2022/07/08 18:23:38;;;;;;;3.22;1.05;;;;;;;19.02;54.05;101011.00;10430390;28;20049;-74
2022/07/08 18:28:40;;;;;;;3.83;1.20;;;;;;;18.95;54.39;101003.38;10426603;28;20046;-73
2022/07/08 18:33:42;;;;;;;4.40;1.27;;;;;;;19.03;53.97;101006.53;10427406;28;20038;-73
2022/07/08 18:38:44;;;;;;;5.05;1.10;;;;;;;19.00;54.69;101002.22;10413125;28;20072;-73
2022/07/08 18:43:46;;;;;;;4.40;1.13;;;;;;;19.04;54.81;101003.81;10392583;28;20046;-73
2022/07/08 18:48:47;;;;;;;4.25;1.27;;;;;;;18.86;55.87;101010.06;10428398;28;20045;-74
2022/07/08 18:53:49;;;;;;;4.25;1.30;;;;;;;18.86;56.11;101010.06;10429412;28;20041;-74
2022/07/08 18:58:51;;;;;;;13.57;1.45;;;;;;;18.66;56.98;101014.53;10411927;28;20081;-74
2022/07/08 19:03:54;;;;;;;3.97;0.95;;;;;;;18.63;57.60;101020.00;10410354;28;20057;-74
2022/07/08 19:08:56;;;;;;;7.80;1.15;;;;;;;18.61;58.37;101018.38;10425928;28;20103;-73
2022/07/08 19:13:58;;;;;;;9.40;1.40;;;;;;;18.54;58.78;101019.63;10409099;28;20060;-74
2022/07/08 19:19:00;;;;;;;5.43;1.30;;;;;;;18.30;60.22;101011.03;10409888;28;20038;-75
2022/07/08 19:24:02;;;;;;;4.10;1.10;;;;;;;18.25;60.97;101011.25;10430457;28;20124;-74
2022/07/08 19:29:06;;;;;;;5.22;1.40;;;;;;;18.18;61.45;101016.94;10428133;28;20148;-74
2022/07/08 19:34:08;;;;;;;3.50;1.10;;;;;;;18.01;62.35;101026.56;10407005;28;20045;-74
2022/07/08 19:39:09;;;;;;;5.10;1.20;;;;;;;17.81;63.33;101029.31;10407844;28;20045;-74
2022/07/08 19:44:11;;;;;;;2.90;0.90;;;;;;;17.77;63.46;101030.38;10412460;28;20085;-74
2022/07/08 19:49:13;;;;;;;3.88;1.13;;;;;;;17.50;64.46;101030.66;10428005;28;20410;-73
2022/07/08 19:54:15;;;;;;;5.03;1.05;;;;;;;17.39;65.05;101032.91;10407470;28;20077;-74
2022/07/08 19:59:17;;;;;;;3.45;1.00;;;;;;;17.42;65.42;101031.94;10392945;28;20049;-74
2022/07/08 20:04:19;;;;;;;3.45;1.02;;;;;;;17.17;66.64;101032.13;10426320;28;20549;-74
2022/07/08 20:09:23;;;;;;;3.95;1.10;;;;;;;17.10;67.16;101037.72;10421609;28;20041;-74
2022/07/08 20:14:25;;;;;;;2.78;1.17;;;;;;;16.88;68.40;101043.06;10404618;28;20513;-74
2022/07/08 20:19:27;;;;;;;3.85;1.38;;;;;;;16.71;69.26;101029.59;10406028;28;20080;-74
2022/07/08 20:24:29;;;;;;;3.85;1.35;;;;;;;16.67;69.59;101035.97;10406095;28;20049;-73
2022/07/08 20:29:31;;;;;;;3.42;1.25;;;;;;;16.61;70.16;101036.22;10410544;28;20052;-74
2022/07/08 20:34:32;;;;;;;3.83;1.25;;;;;;;16.58;70.35;101044.31;10425315;28;20061;-74
2022/07/08 20:39:34;;;;;;;4.85;1.23;;;;;;;16.45;71.04;101037.75;10409130;28;20041;-74
2022/07/08 20:44:36;;;;;;;6.43;1.33;;;;;;;16.39;71.49;101034.44;10427892;28;20045;-73
2022/07/08 20:49:38;;;;;;;4.78;1.60;;;;;;;16.37;71.64;101033.63;10413020;28;20041;-74
2022/07/08 20:54:42;;;;;;;9.27;1.92;;;;;;;16.12;72.79;101030.22;10425344;28;20096;-74
2022/07/08 20:59:44;;;;;;;4.13;1.50;;;;;;;16.11;72.70;101025.81;10408003;28;20040;-73
2022/07/08 21:04:47;;;;;;;3.80;1.55;;;;;;;16.20;72.36;101025.47;10408275;28;20132;-74
2022/07/08 21:09:48;;;;;;;4.93;1.42;;;;;;;16.18;72.51;101019.38;10428641;28;20037;-74
2022/07/08 21:14:50;;;;;;;3.75;1.40;;;;;;;16.19;72.18;101014.91;10425452;28;20045;-75
2022/07/08 21:19:52;;;;;;;4.18;1.70;;;;;;;16.21;72.13;101015.75;10425699;28;20487;-73
2022/07/08 21:24:54;;;;;;;3.92;1.40;;;;;;;16.15;72.25;101016.81;10429157;28;20105;-73
2022/07/08 21:29:58;;;;;;;6.60;1.73;;;;;;;16.21;72.08;101018.41;10407125;28;20141;-73
2022/07/08 21:35:00;;;;;;;5.28;2.00;;;;;;;15.95;72.88;101014.09;10411457;28;20072;-72
2022/07/08 21:40:03;;;;;;;3.85;1.40;;;;;;;16.07;72.73;101006.53;10405901;28;20045;-72
2022/07/08 21:45:06;;;;;;;5.10;1.55;;;;;;;16.02;72.67;101010.25;10421146;28;20128;-73
2022/07/08 21:50:08;;;;;;;6.25;1.85;;;;;;;16.11;72.22;101013.44;10404471;28;20108;-73
2022/07/08 21:55:12;;;;;;;5.50;2.00;;;;;;;16.03;72.39;101012.88;10422658;28;20042;-74
2022/07/08 22:00:14;;;;;;;4.70;1.67;;;;;;;16.02;72.29;100997.88;10403295;28;20045;-73
2022/07/08 22:05:16;;;;;;;4.95;1.73;;;;;;;15.86;72.92;101000.25;10421096;28;20053;-73
2022/07/08 22:10:20;;;;;;;5.22;1.80;;;;;;;16.01;72.30;101000.59;10403129;28;20037;-73
2022/07/08 22:15:22;;;;;;;3.20;1.48;;;;;;;15.96;71.97;101003.41;10423219;28;20049;-73
2022/07/08 22:20:24;;;;;;;6.38;1.77;;;;;;;15.96;72.49;101000.78;10402361;28;20526;-73
2022/07/08 22:25:26;;;;;;;4.40;1.58;;;;;;;15.85;72.87;101001.19;10426169;28;20091;-76
2022/07/08 22:30:27;;;;;;;5.65;1.70;;;;;;;15.72;73.48;100999.94;10412864;28;20049;-76
2022/07/08 22:35:29;;;;;;;4.68;1.80;;;;;;;15.56;74.24;101007.53;10433025;28;20041;-76
2022/07/08 22:40:32;;;;;;;3.53;1.73;;;;;;;15.62;73.74;100987.88;10401194;28;20136;-76
2022/07/08 22:45:38;;;;;;;4.40;1.58;;;;;;;15.51;74.57;100993.59;10414977;28;20053;-77
2022/07/08 22:50:40;;;;;;;5.47;1.90;;;;;;;15.46;74.87;100986.75;10434490;28;20055;-76
2022/07/08 22:55:41;;;;;;;4.20;1.70;;;;;;;15.44;75.17;101000.03;10416296;28;20072;-76
2022/07/08 23:00:43;;;;;;;6.22;1.77;;;;;;;15.25;75.82;100996.34;10436861;28;20073;-76
2022/07/08 23:05:45;;;;;;;5.82;1.63;;;;;;;15.31;75.56;100986.38;10433876;28;20053;-77